Park Hills, Iowa
Current Conditions -  °F | °C
As of 12:35 PM on Thursday 27 Nov 2014 (Local Time) from KPEA Reporting Station
Clear Clear  
Wind Chill: -1°   Ceiling: Unl
Heat Index: 12°   Visibility: 10mi
Dew Point:   Wind: 10mph
Humidity: 64%   Direction: 330°NNW
Pressure: 30.52"   Gusts: NA
Location:  41.4592°N, 93.0401°W
Report Text: KPEA 271835Z AUTO 33009KT 10SM CLR M11/M17 A3052 RMK AO2 T11111167
Loading
Personal Weather Stations






























Interactive Weather Map New forecast layout! Learn more

10-Day Weather Forecast

Advertisements
Track Severe Weather on mobile